Time;durP1;ratioP1;P1;durP2;ratioP2;P2;SDS_P1;SDS_P2;PMS_P1;PMS_P2;Temp;Humidity;BMP_temperature;BMP_pressure;BME280_temperature;BME280_humidity;BME280_pressure;Samples;Min_cycle;Max_cycle;Signal;HPM_P1;HPM_P2
2022/08/14 00:03:58;;;;;;;10.10;7.80;;;;;19.60;96128.00;;;;8325299;28;20249;-71
2022/08/14 00:08:04;;;;;;;12.88;8.52;;;;;19.60;96131.00;;;;8310576;28;20231;-71
2022/08/14 00:12:16;;;;;;;9.40;7.60;;;;;19.60;96122.00;;;;8320835;28;20626;-71
2022/08/14 00:16:26;;;;;;;10.57;7.65;;;;;19.60;96127.00;;;;8319066;28;20239;-70
2022/08/14 00:20:46;;;;;;;9.75;7.85;;;;;19.40;96123.00;;;;8320487;28;20221;-71
2022/08/14 00:24:51;;;;;;;10.48;8.13;;;;;19.20;96122.00;;;;8313797;28;20666;-71
2022/08/14 00:28:54;;;;;;;10.13;8.15;;;;;19.00;96115.00;;;;8324358;28;20587;-72
2022/08/14 00:32:59;;;;;;;10.38;7.97;;;;;18.80;96110.00;;;;8323399;28;20312;-72
2022/08/14 00:37:04;;;;;;;13.30;7.85;;;;;18.70;96114.00;;;;8320159;28;20225;-70
2022/08/14 00:41:11;;;;;;;11.50;8.85;;;;;18.60;96114.00;;;;8322269;28;20229;-71
2022/08/14 00:45:16;;;;;;;12.73;8.80;;;;;18.50;96100.00;;;;8326271;28;20221;-71
2022/08/14 00:49:22;;;;;;;14.82;9.30;;;;;18.40;96102.00;;;;8329157;28;20242;-72
2022/08/14 00:53:27;;;;;;;12.32;8.95;;;;;18.20;96106.00;;;;8314290;28;20242;-71
2022/08/14 00:57:35;;;;;;;10.32;8.25;;;;;18.20;96097.00;;;;8324966;28;20610;-71
2022/08/14 01:01:42;;;;;;;11.85;8.85;;;;;18.10;96093.00;;;;8320922;28;20325;-71
2022/08/14 01:05:48;;;;;;;15.13;9.93;;;;;18.10;96091.00;;;;8323531;28;20252;-71
2022/08/14 01:09:56;;;;;;;9.45;8.45;;;;;18.00;96089.00;;;;8317587;28;20226;-71
2022/08/14 01:14:01;;;;;;;11.70;9.30;;;;;17.90;96091.00;;;;8319625;28;20244;-71
2022/08/14 01:23:01;;;;;;;9.90;8.85;;;;;17.80;96082.00;;;;8319136;28;20327;-71
2022/08/14 01:27:07;;;;;;;11.63;9.13;;;;;17.70;96083.00;;;;8320344;28;20224;-71
2022/08/14 01:31:14;;;;;;;14.95;9.85;;;;;17.70;96088.00;;;;8330861;28;20225;-71
2022/08/14 01:35:18;;;;;;;13.07;9.65;;;;;17.60;96087.00;;;;8326172;28;20316;-71
2022/08/14 01:39:45;;;;;;;13.43;9.38;;;;;17.50;96086.00;;;;8326776;28;20267;-71
2022/08/14 01:43:51;;;;;;;11.45;9.32;;;;;17.50;96084.00;;;;8329244;28;22422;-71
2022/08/14 01:47:58;;;;;;;10.60;8.73;;;;;17.40;96073.00;;;;8315818;28;21289;-72
2022/08/14 01:52:07;;;;;;;11.68;9.30;;;;;17.40;96076.00;;;;8315821;28;20237;-72
2022/08/14 01:56:36;;;;;;;13.18;9.20;;;;;17.30;96071.00;;;;8332979;28;20230;-71
2022/08/14 02:00:41;;;;;;;11.77;9.38;;;;;17.20;96070.00;;;;8316895;28;20574;-71
2022/08/14 02:04:49;;;;;;;14.25;10.77;;;;;17.10;96058.00;;;;8305976;28;20232;-71
2022/08/14 02:09:01;;;;;;;12.25;10.02;;;;;17.10;96054.00;;;;8318315;28;20256;-71
2022/08/14 02:13:22;;;;;;;11.88;9.43;;;;;17.10;96043.00;;;;8309594;28;20224;-71
2022/08/14 02:17:26;;;;;;;14.02;9.45;;;;;17.00;96044.00;;;;8316971;28;20221;-72
2022/08/14 02:21:33;;;;;;;11.98;9.73;;;;;17.10;96029.00;;;;8312575;28;20240;-72
2022/08/14 02:25:48;;;;;;;14.48;10.75;;;;;17.10;96030.00;;;;8317568;28;20275;-72
2022/08/14 02:29:58;;;;;;;21.63;10.10;;;;;17.10;96030.00;;;;8317604;28;20229;-73
2022/08/14 02:34:06;;;;;;;14.70;9.95;;;;;17.00;96029.00;;;;8316937;28;20621;-72
2022/08/14 02:38:25;;;;;;;11.25;9.82;;;;;17.00;96027.00;;;;8313878;28;20587;-72
2022/08/14 02:42:33;;;;;;;12.43;10.13;;;;;16.90;96025.00;;;;8318608;28;20259;-71
2022/08/14 02:46:43;;;;;;;13.25;10.20;;;;;16.80;96028.00;;;;8316660;28;20259;-72
2022/08/14 02:50:51;;;;;;;13.52;10.52;;;;;16.80;96019.00;;;;8315588;28;20233;-71
2022/08/14 02:54:56;;;;;;;16.77;11.63;;;;;16.70;96013.00;;;;8312388;28;20322;-72
2022/08/14 02:59:00;;;;;;;14.82;11.48;;;;;16.60;96022.00;;;;8315485;28;20319;-71
2022/08/14 03:03:09;;;;;;;15.63;11.50;;;;;16.60;96016.00;;;;8367741;22;20235;-71
2022/08/14 03:07:15;;;;;;;16.88;12.82;;;;;16.90;96015.00;;;;8376704;28;20225;-72
2022/08/14 03:11:19;;;;;;;18.33;12.73;;;;;17.30;96010.00;;;;8374452;28;20223;-72
2022/08/14 03:15:24;;;;;;;17.38;12.63;;;;;17.60;96011.00;;;;8382000;28;20227;-71
2022/08/14 03:19:29;;;;;;;15.48;12.07;;;;;17.90;96006.00;;;;8386848;28;20281;-72
2022/08/14 03:23:34;;;;;;;18.52;11.82;;;;;18.00;96008.00;;;;8389865;28;20737;-72
2022/08/14 03:27:40;;;;;;;17.23;12.45;;;;;18.20;96010.00;;;;8388883;28;20220;-71
2022/08/14 03:32:00;;;;;;;15.77;12.48;;;;;18.20;96001.00;;;;8387361;28;20228;-68
2022/08/14 03:36:11;;;;;;;16.85;12.30;;;;;18.30;95998.00;;;;8387080;28;20592;-67
2022/08/14 03:40:37;;;;;;;16.52;11.70;;;;;18.30;95992.00;;;;8384470;28;20747;-70
2022/08/14 03:44:42;;;;;;;16.77;11.68;;;;;18.30;95996.00;;;;8386539;28;20219;-69
2022/08/14 03:49:06;;;;;;;17.75;12.90;;;;;18.30;95983.00;;;;8395401;28;20714;-71
2022/08/14 03:53:17;;;;;;;19.67;12.98;;;;;18.30;95978.00;;;;8391390;28;20243;-70
2022/08/14 03:57:20;;;;;;;14.98;11.98;;;;;18.30;95979.00;;;;8386393;28;20211;-71
2022/08/14 04:01:26;;;;;;;17.23;11.75;;;;;18.40;95970.00;;;;8400018;28;20234;-70
2022/08/14 04:05:41;;;;;;;16.55;12.30;;;;;18.40;95970.00;;;;8393455;28;20284;-71
2022/08/14 04:09:52;;;;;;;17.73;12.13;;;;;18.30;95963.00;;;;8392377;28;20659;-71
2022/08/14 04:14:00;;;;;;;12.88;10.65;;;;;18.20;95962.00;;;;8376724;28;20277;-71
2022/08/14 04:18:08;;;;;;;15.80;12.13;;;;;18.20;95949.00;;;;8391803;28;20237;-72
2022/08/14 04:22:14;;;;;;;17.65;12.55;;;;;18.20;95942.00;;;;8380337;28;20232;-72
2022/08/14 04:26:21;;;;;;;19.52;12.98;;;;;18.20;95946.00;;;;8382203;28;20219;-72
2022/08/14 04:30:44;;;;;;;16.85;12.10;;;;;18.20;95939.00;;;;8372589;28;20225;-71
2022/08/14 04:34:49;;;;;;;13.73;11.60;;;;;18.20;95940.00;;;;8379621;28;20799;-71
2022/08/14 04:43:38;;;;;;;17.05;13.55;;;;;18.40;95947.00;;;;8374183;28;20581;-70
2022/08/14 04:52:08;;;;;;;16.35;12.63;;;;;18.50;95945.00;;;;8388752;28;20263;-69
2022/08/14 04:56:27;;;;;;;19.60;13.07;;;;;18.50;95944.00;;;;8386670;28;20216;-71
2022/08/14 05:00:39;;;;;;;17.58;12.52;;;;;18.60;95950.00;;;;8377678;28;20375;-71
2022/08/14 05:04:43;;;;;;;15.95;12.50;;;;;18.70;95943.00;;;;8381040;28;20243;-71
2022/08/14 05:08:48;;;;;;;16.48;11.95;;;;;18.80;95931.00;;;;8390885;28;20257;-70
2022/08/14 05:13:04;;;;;;;17.80;12.20;;;;;18.90;95916.00;;;;8394683;28;20273;-74
2022/08/14 05:17:18;;;;;;;13.80;11.13;;;;;18.90;95921.00;;;;8380509;28;20227;-71
2022/08/14 05:21:25;;;;;;;14.35;11.40;;;;;19.00;95915.00;;;;8390343;28;20359;-70
2022/08/14 05:25:50;;;;;;;15.23;12.05;;;;;19.10;95917.00;;;;8378964;28;20277;-71
2022/08/14 05:29:55;;;;;;;14.90;11.90;;;;;19.10;95921.00;;;;8385525;28;20577;-72
2022/08/14 05:34:00;;;;;;;18.70;11.63;;;;;19.30;95920.00;;;;8379359;28;20224;-70
2022/08/14 05:38:08;;;;;;;13.77;10.70;;;;;19.40;95922.00;;;;8383778;28;20224;-71
2022/08/14 05:42:24;;;;;;;16.08;11.32;;;;;19.60;95916.00;;;;8382856;28;20220;-71
2022/08/14 05:46:40;;;;;;;15.27;11.98;;;;;19.70;95912.00;;;;8380494;28;20243;-72
2022/08/14 05:50:46;;;;;;;14.38;10.82;;;;;19.80;95916.00;;;;8384629;28;20313;-72
2022/08/14 05:54:51;;;;;;;14.50;10.57;;;;;19.90;95917.00;;;;8381529;28;20228;-73
2022/08/14 05:58:56;;;;;;;15.68;10.95;;;;;20.10;95916.00;;;;8385396;28;20235;-72
2022/08/14 06:03:05;;;;;;;14.70;10.88;;;;;20.30;95917.00;;;;8380715;28;20330;-72
2022/08/14 06:07:10;;;;;;;12.25;9.63;;;;;20.50;95916.00;;;;8388026;28;20235;-72
2022/08/14 06:11:13;;;;;;;11.00;9.40;;;;;20.70;95916.00;;;;8388421;28;20266;-72
2022/08/14 06:15:32;;;;;;;14.20;10.43;;;;;20.80;95916.00;;;;8376846;28;20583;-69
2022/08/14 06:19:36;;;;;;;13.60;9.70;;;;;21.00;95913.00;;;;8379602;28;20246;-71
2022/08/14 06:23:40;;;;;;;11.88;9.82;;;;;21.30;95909.00;;;;8333048;28;20747;-71
2022/08/14 06:27:45;;;;;;;14.88;9.68;;;;;21.50;95903.00;;;;8271133;28;20694;-69
2022/08/14 06:31:49;;;;;;;11.40;9.38;;;;;21.70;95914.00;;;;8310334;28;20233;-70
2022/08/14 06:36:02;;;;;;;13.00;9.82;;;;;21.90;95916.00;;;;8307245;28;20308;-72
2022/08/14 06:40:11;;;;;;;13.52;9.85;;;;;22.10;95917.00;;;;8319563;28;20670;-70
2022/08/14 06:44:29;;;;;;;11.85;9.48;;;;;22.30;95913.00;;;;8312814;28;20759;-70
2022/08/14 06:48:35;;;;;;;11.60;9.65;;;;;22.70;95913.00;;;;8309845;28;20244;-70
2022/08/14 06:52:39;;;;;;;10.10;9.05;;;;;23.00;95913.00;;;;8310911;28;20336;-72
2022/08/14 06:56:53;;;;;;;10.15;8.52;;;;;23.30;95919.00;;;;8311015;28;20217;-73
2022/08/14 07:05:46;;;;;;;9.82;8.10;;;;;23.90;95930.00;;;;8321904;28;20252;-74
2022/08/14 07:09:58;;;;;;;8.48;7.45;;;;;24.60;95932.00;;;;8317452;28;20247;-73
2022/08/14 07:14:04;;;;;;;8.20;7.40;;;;;25.30;95927.00;;;;8318368;28;20649;-73
2022/08/14 07:18:12;;;;;;;10.43;7.97;;;;;26.00;95923.00;;;;8309578;28;20659;-75
2022/08/14 07:22:16;;;;;;;11.77;7.38;;;;;26.50;95921.00;;;;8325584;28;20868;-76
2022/08/14 07:26:22;;;;;;;7.32;6.63;;;;;27.10;95924.00;;;;8311957;28;20248;-73
2022/08/14 07:30:29;;;;;;;9.30;7.57;;;;;28.10;95919.00;;;;8312256;28;20231;-71
2022/08/14 07:34:44;;;;;;;8.30;6.78;;;;;29.00;95911.00;;;;8315184;28;20237;-72
2022/08/14 07:38:47;;;;;;;7.97;7.28;;;;;29.50;95920.00;;;;8314951;28;20244;-71
2022/08/14 07:42:54;;;;;;;9.55;6.18;;;;;30.20;95927.00;;;;8308634;28;20743;-72
2022/08/14 07:46:59;;;;;;;6.55;6.05;;;;;30.60;95921.00;;;;8309770;28;20673;-72
2022/08/14 07:51:02;;;;;;;6.97;6.38;;;;;30.90;95908.00;;;;8298054;28;20840;-72
2022/08/14 07:55:14;;;;;;;8.38;6.53;;;;;31.30;95909.00;;;;8305040;28;20296;-71
2022/08/14 07:59:23;;;;;;;7.20;6.10;;;;;31.50;95904.00;;;;8316120;28;20228;-72
2022/08/14 08:03:46;;;;;;;6.50;5.90;;;;;31.90;95908.00;;;;8319528;28;20224;-72
2022/08/14 08:07:54;;;;;;;6.25;5.55;;;;;32.10;95910.00;;;;8302852;28;20693;-72
2022/08/14 08:11:59;;;;;;;9.32;6.05;;;;;32.40;95909.00;;;;8310451;28;20232;-71
2022/08/14 08:16:05;;;;;;;6.28;5.68;;;;;32.70;95908.00;;;;8323682;28;20301;-71
2022/08/14 08:20:15;;;;;;;6.82;5.30;;;;;32.70;95905.00;;;;8317163;28;21468;-72
2022/08/14 08:24:34;;;;;;;5.53;5.03;;;;;32.90;95898.00;;;;8312038;28;20333;-72
2022/08/14 08:28:39;;;;;;;5.90;5.40;;;;;33.00;95901.00;;;;8303836;28;20313;-71
2022/08/14 08:32:48;;;;;;;6.53;5.93;;;;;32.60;95896.00;;;;8320325;28;20240;-72
2022/08/14 08:36:58;;;;;;;6.00;5.40;;;;;33.10;95887.00;;;;8313901;28;20239;-71
2022/08/14 08:41:09;;;;;;;6.93;5.35;;;;;33.10;95892.00;;;;8312763;28;20340;-71
2022/08/14 08:45:16;;;;;;;5.68;5.18;;;;;32.90;95893.00;;;;8316877;28;20307;-70
2022/08/14 08:49:20;;;;;;;5.68;5.18;;;;;33.20;95893.00;;;;8299683;28;20233;-70
2022/08/14 08:53:32;;;;;;;5.82;5.18;;;;;33.80;95891.00;;;;8321589;28;20315;-71
2022/08/14 08:57:36;;;;;;;5.32;4.88;;;;;34.10;95892.00;;;;8303293;28;20241;-72
2022/08/14 09:01:39;;;;;;;5.82;5.32;;;;;34.60;95890.00;;;;8304673;28;20247;-71
2022/08/14 09:05:51;;;;;;;5.40;4.90;;;;;34.60;95889.00;;;;8323249;28;20705;-72
2022/08/14 09:09:57;;;;;;;6.25;4.82;;;;;34.40;95886.00;;;;8329474;28;20229;-71
2022/08/14 09:14:03;;;;;;;6.20;5.03;;;;;34.50;95884.00;;;;8320822;28;20221;-71
2022/08/14 09:18:08;;;;;;;5.57;5.07;;;;;34.40;95872.00;;;;8316402;28;20646;-72
2022/08/14 09:22:13;;;;;;;5.22;4.82;;;;;34.40;95865.00;;;;8302772;28;20692;-71
2022/08/14 09:26:38;;;;;;;6.88;5.57;;;;;34.40;95868.00;;;;8310904;28;20228;-72
2022/08/14 09:30:45;;;;;;;6.38;5.35;;;;;34.80;95874.00;;;;8308136;28;21082;-71
2022/08/14 09:34:57;;;;;;;5.35;4.85;;;;;34.90;95879.00;;;;8282619;28;20238;-70
2022/08/14 09:39:08;;;;;;;5.28;4.82;;;;;34.20;95877.00;;;;8349535;28;20224;-70
2022/08/14 09:43:31;;;;;;;6.38;5.00;;;;;34.30;95881.00;;;;8348850;28;20231;-70
2022/08/14 09:47:42;;;;;;;5.95;4.70;;;;;34.50;95880.00;;;;8354984;28;20231;-72
2022/08/14 09:51:47;;;;;;;5.43;4.90;;;;;34.50;95871.00;;;;8353028;28;20662;-71
2022/08/14 09:56:03;;;;;;;5.38;4.88;;;;;34.40;95859.00;;;;8362310;28;20233;-70
2022/08/14 10:00:17;;;;;;;4.90;4.40;;;;;34.50;95840.00;;;;8351713;28;20782;-71
2022/08/14 10:04:32;;;;;;;6.07;4.97;;;;;34.60;95852.00;;;;8346259;28;20617;-71
2022/08/14 10:08:45;;;;;;;4.72;4.35;;;;;34.80;95850.00;;;;8312333;28;20225;-72
2022/08/14 10:12:57;;;;;;;4.72;4.32;;;;;35.10;95854.00;;;;8316347;28;20225;-72
2022/08/14 10:17:03;;;;;;;6.50;4.07;;;;;35.50;95855.00;;;;8315002;28;20233;-72
2022/08/14 10:21:16;;;;;;;4.93;4.47;;;;;35.70;95845.00;;;;8320354;28;20249;-70
2022/08/14 10:25:20;;;;;;;4.45;4.15;;;;;36.10;95844.00;;;;8309133;28;20249;-71
2022/08/14 10:29:33;;;;;;;4.05;3.75;;;;;36.50;95830.00;;;;8312188;28;20256;-72
2022/08/14 10:33:39;;;;;;;3.97;3.50;;;;;36.60;95830.00;;;;8311685;28;20578;-70
2022/08/14 10:38:03;;;;;;;4.55;3.95;;;;;36.80;95827.00;;;;8275110;28;20308;-72
2022/08/14 10:42:11;;;;;;;4.43;4.03;;;;;37.10;95826.00;;;;8307323;28;21056;-72
2022/08/14 10:46:20;;;;;;;4.65;3.53;;;;;37.20;95826.00;;;;8317857;28;20304;-72
2022/08/14 10:50:50;;;;;;;4.47;3.72;;;;;37.10;95827.00;;;;8317600;28;20250;-71
2022/08/14 10:55:06;;;;;;;4.07;3.70;;;;;37.20;95824.00;;;;8304927;28;20257;-72
2022/08/14 10:59:12;;;;;;;3.90;3.60;;;;;37.60;95809.00;;;;8274764;28;20337;-70
2022/08/14 11:03:16;;;;;;;4.30;3.70;;;;;37.80;95808.00;;;;8272269;28;20320;-70
2022/08/14 11:07:40;;;;;;;4.60;4.20;;;;;37.80;95804.00;;;;8281584;28;20586;-69
2022/08/14 11:11:46;;;;;;;6.13;4.40;;;;;38.00;95813.00;;;;8282440;28;20329;-72
2022/08/14 11:15:59;;;;;;;4.10;3.75;;;;;37.90;95802.00;;;;8284049;28;20631;-71
2022/08/14 11:20:05;;;;;;;4.30;4.00;;;;;37.80;95792.00;;;;8293158;28;20312;-71
2022/08/14 11:24:21;;;;;;;4.25;3.90;;;;;37.70;95809.00;;;;8276736;28;20273;-72
2022/08/14 11:28:47;;;;;;;4.82;4.43;;;;;36.80;95790.00;;;;8289393;28;20245;-72
2022/08/14 11:32:53;;;;;;;4.78;4.43;;;;;36.90;95791.00;;;;8288377;28;20840;-71
2022/08/14 11:36:56;;;;;;;4.43;4.13;;;;;37.70;95793.00;;;;8297700;28;20714;-71
2022/08/14 11:41:21;;;;;;;4.97;4.47;;;;;38.30;95791.00;;;;8276269;28;20242;-71
2022/08/14 11:45:33;;;;;;;4.80;4.40;;;;;38.70;95784.00;;;;8307908;28;20259;-71
2022/08/14 11:49:39;;;;;;;4.40;4.00;;;;;38.80;95776.00;;;;8308256;28;20263;-70
2022/08/14 11:53:43;;;;;;;4.88;4.47;;;;;38.80;95771.00;;;;8311511;28;20237;-69
2022/08/14 11:58:00;;;;;;;4.50;4.10;;;;;38.90;95774.00;;;;8310283;28;20225;-68
2022/08/14 12:02:11;;;;;;;5.63;4.50;;;;;38.60;95761.00;;;;8311975;28;20320;-69
2022/08/14 12:06:47;;;;;;;4.88;4.47;;;;;37.80;95758.00;;;;8304550;28;20674;-69
2022/08/14 12:10:57;;;;;;;4.47;4.18;;;;;37.50;95753.00;;;;8314929;28;20216;-68
2022/08/14 12:15:02;;;;;;;6.60;4.57;;;;;36.90;95751.00;;;;8326479;28;20252;-69
2022/08/14 12:19:06;;;;;;;6.35;4.15;;;;;36.30;95747.00;;;;8322087;28;20312;-69
2022/08/14 12:23:22;;;;;;;5.85;4.38;;;;;36.10;95741.00;;;;8322127;28;20578;-69
2022/08/14 12:27:42;;;;;;;4.78;4.38;;;;;35.80;95730.00;;;;8323036;28;20311;-69
2022/08/14 12:32:02;;;;;;;4.82;4.22;;;;;35.70;95723.00;;;;8333057;28;20741;-69
2022/08/14 12:36:20;;;;;;;5.15;4.70;;;;;35.50;95720.00;;;;8287273;28;20600;-70
2022/08/14 12:40:23;;;;;;;5.30;4.80;;;;;35.30;95723.00;;;;8306059;28;20268;-69
2022/08/14 12:44:41;;;;;;;6.10;4.10;;;;;35.20;95708.00;;;;8267937;28;20280;-68
2022/08/14 12:48:53;;;;;;;5.18;4.30;;;;;35.20;95702.00;;;;8266660;28;20268;-69
2022/08/14 12:52:57;;;;;;;4.63;4.22;;;;;35.40;95698.00;;;;8307915;28;20221;-68
2022/08/14 12:57:24;;;;;;;6.53;4.40;;;;;35.50;95691.00;;;;8320331;28;20249;-69
2022/08/14 13:01:35;;;;;;;5.05;4.55;;;;;35.10;95677.00;;;;8270233;28;20253;-69
2022/08/14 13:06:01;;;;;;;5.05;4.10;;;;;34.80;95678.00;;;;8290080;28;20272;-70
2022/08/14 13:10:06;;;;;;;5.90;4.50;;;;;35.00;95665.00;;;;8323397;28;20372;-69
2022/08/14 13:14:32;;;;;;;5.07;4.55;;;;;35.00;95656.00;;;;8316374;28;20236;-69
2022/08/14 13:18:40;;;;;;;5.57;4.40;;;;;35.50;95658.00;;;;8318704;28;20224;-69
2022/08/14 13:22:50;;;;;;;6.35;4.15;;;;;35.80;95660.00;;;;8312024;28;20229;-68
2022/08/14 13:26:58;;;;;;;5.10;4.65;;;;;36.10;95644.00;;;;8318121;28;20233;-69
2022/08/14 13:31:05;;;;;;;5.07;4.63;;;;;36.40;95645.00;;;;8303528;28;20273;-69
2022/08/14 13:35:17;;;;;;;6.10;4.60;;;;;36.90;95650.00;;;;8302797;28;20234;-68
2022/08/14 13:39:28;;;;;;;4.47;4.07;;;;;37.50;95636.00;;;;8298792;28;20838;-69
2022/08/14 13:43:39;;;;;;;5.13;4.63;;;;;37.90;95632.00;;;;8308745;28;20229;-69
2022/08/14 13:48:02;;;;;;;5.20;4.70;;;;;38.20;95630.00;;;;8310194;28;20275;-69
2022/08/14 13:52:07;;;;;;;5.13;4.72;;;;;38.30;95626.00;;;;8312738;28;20235;-70
2022/08/14 13:56:37;;;;;;;5.90;4.88;;;;;36.70;95612.00;;;;8306781;28;20255;-69
2022/08/14 14:00:40;;;;;;;5.32;4.82;;;;;35.40;95612.00;;;;8271033;28;20222;-68
2022/08/14 14:05:00;;;;;;;5.22;4.80;;;;;34.60;95612.00;;;;8265892;28;20635;-70
2022/08/14 14:09:06;;;;;;;5.40;4.90;;;;;33.90;95612.00;;;;8281389;28;20737;-69
2022/08/14 14:13:17;;;;;;;5.47;4.97;;;;;33.20;95602.00;;;;8270964;28;20241;-69
2022/08/14 14:17:23;;;;;;;7.60;4.53;;;;;33.20;95596.00;;;;8283427;28;20289;-68
2022/08/14 14:21:27;;;;;;;4.82;4.43;;;;;33.60;95579.00;;;;8287927;28;20226;-69
2022/08/14 14:25:31;;;;;;;5.90;5.40;;;;;33.10;95575.00;;;;8281152;28;20230;-69
2022/08/14 14:29:53;;;;;;;5.53;5.00;;;;;33.80;95570.00;;;;8281298;28;20622;-69
2022/08/14 14:33:59;;;;;;;6.72;5.13;;;;;35.00;95554.00;;;;8302661;28;20320;-69
2022/08/14 14:38:14;;;;;;;5.25;4.78;;;;;35.70;95568.00;;;;8278499;28;20277;-68
2022/08/14 14:42:19;;;;;;;6.10;5.53;;;;;35.80;95571.00;;;;8278717;28;20226;-69
2022/08/14 14:46:38;;;;;;;6.05;4.68;;;;;35.40;95575.00;;;;8278090;28;20229;-68
2022/08/14 14:50:45;;;;;;;5.93;5.32;;;;;34.90;95576.00;;;;8278319;28;20313;-69
2022/08/14 14:54:49;;;;;;;6.32;4.93;;;;;35.20;95576.00;;;;8288918;28;20233;-68
2022/08/14 14:58:54;;;;;;;7.18;5.13;;;;;35.10;95576.00;;;;8308116;28;20233;-68
2022/08/14 15:02:59;;;;;;;7.75;5.13;;;;;34.70;95569.00;;;;8307201;28;20233;-69
2022/08/14 15:07:03;;;;;;;5.40;4.90;;;;;35.10;95568.00;;;;8311365;28;20229;-70
2022/08/14 15:11:08;;;;;;;5.30;4.90;;;;;35.90;95572.00;;;;8302012;28;20225;-70
2022/08/14 15:15:16;;;;;;;5.50;4.88;;;;;36.10;95568.00;;;;8308351;28;20237;-70
2022/08/14 15:19:22;;;;;;;4.95;4.55;;;;;36.30;95559.00;;;;8316548;28;20317;-69
2022/08/14 15:23:25;;;;;;;6.38;5.13;;;;;35.70;95564.00;;;;8319131;28;20231;-69
2022/08/14 15:27:49;;;;;;;5.53;5.03;;;;;34.90;95560.00;;;;8313454;28;20224;-71
2022/08/14 15:31:57;;;;;;;4.95;4.55;;;;;34.40;95552.00;;;;8314856;28;20233;-69
2022/08/14 15:36:03;;;;;;;5.95;4.95;;;;;34.50;95553.00;;;;8324824;28;20346;-70
2022/08/14 15:40:19;;;;;;;4.65;4.18;;;;;34.80;95553.00;;;;8317096;28;20224;-69
2022/08/14 15:44:25;;;;;;;5.32;4.82;;;;;35.20;95543.00;;;;8304391;28;20229;-69
2022/08/14 15:48:36;;;;;;;5.88;4.45;;;;;35.40;95534.00;;;;8327985;28;20311;-69
2022/08/14 15:52:47;;;;;;;4.85;4.45;;;;;35.60;95531.00;;;;8325412;28;20224;-69
2022/08/14 15:56:58;;;;;;;5.55;4.75;;;;;35.70;95535.00;;;;8321459;28;20539;-71
2022/08/14 16:01:22;;;;;;;5.13;4.63;;;;;35.70;95535.00;;;;8304536;28;20233;-69
2022/08/14 16:05:45;;;;;;;11.98;5.00;;;;;35.30;95537.00;;;;8293659;28;20265;-69
2022/08/14 16:09:50;;;;;;;5.40;4.50;;;;;35.50;95530.00;;;;8303285;28;20228;-70
2022/08/14 16:14:14;;;;;;;7.20;4.75;;;;;35.60;95528.00;;;;8295894;28;20217;-69
2022/08/14 16:18:23;;;;;;;5.30;4.80;;;;;35.90;95524.00;;;;8292942;28;20313;-69
2022/08/14 16:22:30;;;;;;;5.20;4.80;;;;;36.00;95524.00;;;;8288902;28;20702;-71
2022/08/14 16:26:57;;;;;;;5.10;4.40;;;;;36.30;95518.00;;;;8327308;28;20224;-69
2022/08/14 16:31:04;;;;;;;4.80;4.40;;;;;36.40;95513.00;;;;8304347;28;20678;-70
2022/08/14 16:35:12;;;;;;;4.90;4.47;;;;;36.90;95503.00;;;;8313275;28;20609;-70
2022/08/14 16:39:16;;;;;;;5.00;4.55;;;;;37.10;95506.00;;;;8320346;28;20233;-69
2022/08/14 16:43:25;;;;;;;5.10;4.50;;;;;37.20;95505.00;;;;8318517;28;20221;-69
2022/08/14 16:47:29;;;;;;;4.68;4.22;;;;;37.30;95508.00;;;;8317660;28;20222;-68
2022/08/14 16:51:39;;;;;;;5.63;5.15;;;;;37.40;95501.00;;;;8307732;28;20229;-69
2022/08/14 16:55:43;;;;;;;5.07;4.57;;;;;37.40;95502.00;;;;8316238;28;20248;-69
2022/08/14 16:59:59;;;;;;;5.18;4.70;;;;;37.70;95503.00;;;;8318257;28;20229;-68
2022/08/14 17:04:10;;;;;;;5.03;4.18;;;;;37.80;95499.00;;;;8317654;28;20263;-68
2022/08/14 17:08:27;;;;;;;6.22;4.30;;;;;37.80;95496.00;;;;8320933;28;20708;-69
2022/08/14 17:12:50;;;;;;;6.00;4.30;;;;;37.80;95496.00;;;;8316291;28;20240;-69
2022/08/14 17:16:59;;;;;;;4.68;4.35;;;;;37.60;95495.00;;;;8329569;28;20321;-69
2022/08/14 17:21:17;;;;;;;4.85;4.35;;;;;37.50;95490.00;;;;8311638;28;20783;-70
2022/08/14 17:25:30;;;;;;;5.30;4.60;;;;;37.30;95482.00;;;;8322585;28;20717;-70
2022/08/14 17:29:36;;;;;;;4.60;4.13;;;;;36.90;95486.00;;;;8312331;28;20251;-71
2022/08/14 17:34:01;;;;;;;5.22;4.72;;;;;36.70;95477.00;;;;8305078;28;20303;-71
2022/08/14 17:38:10;;;;;;;4.88;4.38;;;;;36.20;95480.00;;;;8280909;28;20233;-72
2022/08/14 17:42:54;;;;;;;5.10;4.65;;;;;35.10;95475.00;;;;8311006;28;20762;-72
2022/08/14 17:47:06;;;;;;;4.93;4.05;;;;;34.10;95484.00;;;;8287041;28;20230;-72
2022/08/14 17:51:13;;;;;;;5.20;4.32;;;;;33.20;95487.00;;;;8303131;28;20248;-76
2022/08/14 17:55:16;;;;;;;6.43;4.40;;;;;32.40;95488.00;;;;8286294;28;20209;-73
2022/08/14 17:59:41;;;;;;;5.30;4.88;;;;;31.80;95484.00;;;;8287836;28;20234;-74
2022/08/14 18:03:48;;;;;;;6.55;5.38;;;;;31.20;95476.00;;;;8274954;28;20729;-74
2022/08/14 18:07:57;;;;;;;5.45;4.95;;;;;30.70;95482.00;;;;8280930;28;20759;-74
2022/08/14 18:12:21;;;;;;;6.47;5.13;;;;;30.30;95483.00;;;;8302003;28;20312;-74
2022/08/14 18:16:35;;;;;;;12.90;5.32;;;;;29.90;95482.00;;;;8316415;28;20225;-73
2022/08/14 18:20:43;;;;;;;5.57;4.78;;;;;29.50;95480.00;;;;8318763;28;20701;-74
2022/08/14 18:25:09;;;;;;;5.47;4.97;;;;;28.90;95490.00;;;;8280997;28;20733;-73
2022/08/14 18:29:25;;;;;;;6.70;5.13;;;;;28.30;95484.00;;;;8288572;28;21375;-75
2022/08/14 18:33:35;;;;;;;5.43;4.93;;;;;27.70;95484.00;;;;8301293;28;20240;-75
2022/08/14 18:37:47;;;;;;;5.30;4.80;;;;;27.20;95483.00;;;;8308797;28;20237;-77
2022/08/14 18:42:47;;;;;;;9.27;5.88;;;;;26.70;95487.00;;;;8311229;28;20233;-75
2022/08/14 18:47:21;;;;;;;6.15;5.45;;;;;26.20;95491.00;;;;8281770;28;20228;-72
2022/08/14 18:51:27;;;;;;;6.07;5.40;;;;;26.00;95487.00;;;;8307046;28;20218;-74
2022/08/14 18:55:51;;;;;;;6.43;5.30;;;;;25.70;95495.00;;;;8312397;28;20290;-76
2022/08/14 18:59:56;;;;;;;7.25;5.35;;;;;25.40;95497.00;;;;8313502;28;20260;-79
2022/08/14 19:04:02;;;;;;;7.47;5.68;;;;;25.30;95495.00;;;;8309632;28;20225;-79
2022/08/14 19:08:25;;;;;;;5.78;5.18;;;;;25.10;95498.00;;;;8308891;28;20580;-79
2022/08/14 19:13:11;;;;;;;6.95;5.57;;;;;24.90;95501.00;;;;8297139;28;20765;-77
2022/08/14 19:17:40;;;;;;;7.38;5.65;;;;;24.90;95498.00;;;;8291658;28;20822;-75
2022/08/14 19:21:54;;;;;;;6.53;5.13;;;;;24.90;95501.00;;;;8275388;28;20257;-75
2022/08/14 19:25:59;;;;;;;7.82;5.35;;;;;25.00;95508.00;;;;8281773;28;20229;-78
2022/08/14 19:30:26;;;;;;;5.93;5.40;;;;;25.00;95509.00;;;;8280827;28;20225;-78
2022/08/14 19:34:41;;;;;;;6.38;5.53;;;;;25.10;95509.00;;;;8306382;28;20231;-79
2022/08/14 19:38:58;;;;;;;5.85;5.25;;;;;25.00;95507.00;;;;8276649;28;20240;-78
2022/08/14 19:43:02;;;;;;;6.93;5.40;;;;;24.90;95507.00;;;;8291365;28;20229;-82
2022/08/14 19:47:12;;;;;;;8.45;5.43;;;;;24.90;95513.00;;;;8282417;28;20309;-76
2022/08/14 19:51:15;;;;;;;6.43;5.60;;;;;24.80;95510.00;;;;8290050;28;20310;-79
2022/08/14 19:55:20;;;;;;;7.43;5.25;;;;;24.70;95508.00;;;;8298093;28;20224;-78
2022/08/14 19:59:36;;;;;;;5.93;5.07;;;;;24.70;95517.00;;;;8293109;28;20265;-77
2022/08/14 20:04:00;;;;;;;6.00;5.40;;;;;24.60;95518.00;;;;8311385;28;20239;-79
2022/08/14 20:08:06;;;;;;;7.47;4.97;;;;;24.50;95507.00;;;;8304774;28;20738;-78
2022/08/14 20:12:31;;;;;;;5.63;4.97;;;;;24.50;95506.00;;;;8269793;28;20225;-76
2022/08/14 20:16:57;;;;;;;5.22;4.75;;;;;24.40;95505.00;;;;8287165;28;20237;-78
2022/08/14 20:21:08;;;;;;;5.45;4.45;;;;;24.30;95506.00;;;;8300612;28;20210;-77
2022/08/14 20:25:14;;;;;;;7.15;4.68;;;;;24.30;95509.00;;;;8269146;28;20226;-75
2022/08/14 20:29:29;;;;;;;5.47;4.95;;;;;24.20;95513.00;;;;8282615;28;20231;-74
2022/08/14 20:33:32;;;;;;;11.05;5.55;;;;;24.20;95510.00;;;;8270315;28;20236;-77
2022/08/14 20:37:56;;;;;;;6.93;5.50;;;;;24.10;95510.00;;;;8281219;28;20236;-71
2022/08/14 20:47:00;;;;;;;15.00;8.55;;;;;24.00;95498.00;;;;8286416;28;20680;-71
2022/08/14 20:51:22;;;;;;;6.00;4.88;;;;;24.00;95507.00;;;;8274477;28;20695;-71
2022/08/14 20:55:31;;;;;;;9.73;6.07;;;;;23.90;95506.00;;;;8303847;28;20245;-71
2022/08/14 20:59:40;;;;;;;5.75;5.13;;;;;23.90;95505.00;;;;8324900;28;20323;-72
2022/08/14 21:03:49;;;;;;;4.72;4.28;;;;;23.80;95515.00;;;;8319941;28;20324;-72
2022/08/14 21:08:00;;;;;;;5.78;5.18;;;;;23.80;95509.00;;;;8291108;28;20234;-73
2022/08/14 21:12:12;;;;;;;5.40;4.80;;;;;23.70;95507.00;;;;8265930;28;20770;-72
2022/08/14 21:16:35;;;;;;;6.70;5.28;;;;;23.70;95512.00;;;;8285705;28;20233;-72